createdAt,value
2022-11-10T00:01:19.780Z,34.7
2022-11-10T00:06:57.707Z,34.7
2022-11-10T00:22:48.644Z,34.6
2022-11-10T00:28:10.703Z,34.6
2022-11-10T00:33:32.876Z,34.6
2022-11-10T00:44:02.393Z,34.5
2022-11-10T00:49:22.763Z,34.5
2022-11-10T00:59:35.023Z,34.4
2022-11-10T01:04:56.959Z,34.4
2022-11-10T01:10:19.561Z,34.4
2022-11-10T01:15:44.219Z,34.4
2022-11-10T01:21:06.005Z,34.4
2022-11-10T01:26:28.209Z,34.3
2022-11-10T01:41:47.443Z,34.3
2022-11-10T01:47:09.668Z,34.2
2022-11-10T01:52:31.459Z,34.2
2022-11-10T01:57:53.130Z,34.1
2022-11-10T02:08:36.433Z,34.2
2022-11-10T02:13:43.076Z,34.4
2022-11-10T02:19:20.554Z,34.8
2022-11-10T02:24:56.920Z,35.4
2022-11-10T02:30:34.899Z,36.1
2022-11-10T02:41:16.918Z,37.4
2022-11-10T02:52:16.230Z,38.6
2022-11-10T02:57:37.424Z,39.3
2022-11-10T03:03:05.065Z,40.1
2022-11-10T03:08:43.184Z,40.7
2022-11-10T03:14:41.163Z,40.7
2022-11-10T03:20:19.069Z,40.7
2022-11-10T03:25:56.491Z,40.8
2022-11-10T03:31:33.250Z,40.9
2022-11-10T03:37:15.127Z,41.4
2022-11-10T03:48:14.419Z,41.8
2022-11-10T03:53:41.114Z,41.8
2022-11-10T04:09:15.867Z,41.8
2022-11-10T04:14:38.722Z,41.8
2022-11-10T04:19:59.644Z,41.8
2022-11-10T04:25:21.263Z,41.8
2022-11-10T04:30:12.988Z,41.7
2022-11-10T04:35:35.148Z,41.7
2022-11-10T04:40:56.218Z,41.7
2022-11-10T04:46:18.722Z,41.7
2022-11-10T04:51:41.327Z,41.6
2022-11-10T04:57:04.005Z,41.6
2022-11-10T05:02:11.533Z,41.6
2022-11-10T05:07:34.174Z,41.6
2022-11-10T05:17:47.355Z,41.5
2022-11-10T05:22:53.676Z,41.5
2022-11-10T05:28:15.501Z,41.4
2022-11-10T05:33:37.768Z,41.4
2022-11-10T05:39:16.966Z,41.4
2022-11-10T05:44:54.095Z,41.4
2022-11-10T05:50:16.304Z,41.3
2022-11-10T05:55:54.519Z,41.3
2022-11-10T06:01:31.534Z,41.3
2022-11-10T06:07:10.978Z,41.2
2022-11-10T06:12:48.041Z,41.2
2022-11-10T06:18:25.550Z,41.1
2022-11-10T06:24:11.286Z,41.1
2022-11-10T06:29:48.996Z,41
2022-11-10T06:35:32.860Z,40.9
2022-11-10T06:41:10.891Z,40.9
2022-11-10T06:46:48.864Z,40.9
2022-11-10T06:52:26.502Z,40.8
2022-11-10T06:58:04.566Z,40.8
2022-11-10T07:04:05.411Z,40.8
2022-11-10T07:09:55.519Z,40.7
2022-11-10T07:15:18.709Z,40.6
2022-11-10T07:20:56.603Z,40.6
2022-11-10T07:26:40.203Z,40.6
2022-11-10T07:32:22.808Z,40.6
2022-11-10T07:38:05.635Z,40.5
2022-11-10T07:43:47.959Z,40.4
2022-11-10T07:49:25.443Z,40.3
2022-11-10T07:55:03.437Z,39.8
2022-11-10T08:00:44.927Z,39.6
2022-11-10T08:06:23.617Z,39.4
2022-11-10T08:11:46.491Z,39.3
2022-11-10T08:17:24.370Z,39.3
2022-11-10T08:23:05.962Z,39.2
2022-11-10T08:28:44.482Z,39.1
2022-11-10T08:34:29.617Z,39
2022-11-10T08:40:27.689Z,38.9
2022-11-10T08:46:06.921Z,38.9
2022-11-10T08:51:44.612Z,38.9
2022-11-10T08:57:23.166Z,38.8
2022-11-10T09:03:06.463Z,38.8
2022-11-10T09:08:45.194Z,38.8
2022-11-10T09:14:23.302Z,76.8
2022-11-10T09:20:08.123Z,67.6
2022-11-10T09:25:37.144Z,60.8
2022-11-10T09:31:22.213Z,55.7
2022-11-10T09:37:05.120Z,51.5
2022-11-10T09:42:46.441Z,55.1
2022-11-10T09:48:56.907Z,71.9
2022-11-10T09:54:34.918Z,63.3
2022-11-10T10:00:17.345Z,57.6
2022-11-10T10:05:58.261Z,53.1
2022-11-10T10:12:01.986Z,79.7
2022-11-10T10:17:43.355Z,68.2
2022-11-10T10:23:26.924Z,61.4
2022-11-10T10:29:40.505Z,55.6
2022-11-10T10:35:17.946Z,51.8
2022-11-10T10:41:01.545Z,78.6
2022-11-10T10:46:47.970Z,70.1
2022-11-10T10:52:54.072Z,62.4
2022-11-10T10:58:16.044Z,57.1
2022-11-10T11:03:54.528Z,53.1
2022-11-10T11:09:33.109Z,76.1
2022-11-10T11:15:17.453Z,66.9
2022-11-10T11:20:42.056Z,60.8
2022-11-10T11:26:19.687Z,55.8
2022-11-10T11:31:59.910Z,52.1
2022-11-10T11:37:43.440Z,51.1
2022-11-10T11:43:23.018Z,72.9
2022-11-10T11:49:01.575Z,65.1
2022-11-10T11:54:24.111Z,59.7
2022-11-10T11:59:20.077Z,55.3
2022-11-10T12:04:31.803Z,52.2
2022-11-10T12:09:39.344Z,49.8
2022-11-10T12:14:46.783Z,48.2
2022-11-10T12:20:13.763Z,47.1
2022-11-10T12:25:21.539Z,46.3
2022-11-10T12:30:43.935Z,45.6
2022-11-10T12:35:51.682Z,45.3
2022-11-10T12:40:58.740Z,44.9
2022-11-10T12:46:05.407Z,44.6
2022-11-10T12:51:28.805Z,44.4
2022-11-10T12:56:35.596Z,44.2
2022-11-10T13:02:02.983Z,44.1
2022-11-10T13:07:30.050Z,43.9
2022-11-10T13:12:53.026Z,43.8
2022-11-10T13:18:15.463Z,43.7
2022-11-10T13:23:39.944Z,43.6
2022-11-10T13:29:02.998Z,43.5
2022-11-10T13:39:51.292Z,43.3
2022-11-10T13:45:15.895Z,43.1
2022-11-10T13:50:54.103Z,43
2022-11-10T13:56:22.162Z,42.8
2022-11-10T14:01:59.475Z,42.7
2022-11-10T14:07:38.569Z,42.5
2022-11-10T14:18:40.122Z,42.3
2022-11-10T14:24:23.657Z,42.1
2022-11-10T14:30:08.970Z,41.9
2022-11-10T14:35:47.751Z,41.8
2022-11-10T14:41:26.623Z,41.7
2022-11-10T14:47:05.278Z,41.6
2022-11-10T14:52:43.899Z,41.5
2022-11-10T14:58:24.060Z,41.4
2022-11-10T15:04:03.520Z,41.3
2022-11-10T15:09:49.496Z,41.2
2022-11-10T15:15:28.417Z,41.1
2022-11-10T15:21:06.966Z,41
2022-11-10T15:26:45.377Z,40.9
2022-11-10T15:32:23.673Z,40.9
2022-11-10T15:37:51.059Z,40.8
2022-11-10T15:43:22.648Z,40.7
2022-11-10T15:49:04.352Z,40.6
2022-11-10T15:54:48.507Z,40.5
2022-11-10T16:05:33.479Z,40.4
2022-11-10T16:11:12.498Z,40.3
2022-11-10T16:16:35.808Z,40.3
2022-11-10T16:22:14.506Z,40.2
2022-11-10T16:32:33.365Z,40.1
2022-11-10T16:37:56.365Z,40
2022-11-10T16:48:59.121Z,39.9
2022-11-10T17:04:47.304Z,39.8
2022-11-10T17:09:54.589Z,39.8
2022-11-10T17:15:16.780Z,39.9
2022-11-10T17:20:24.998Z,40.1
2022-11-10T17:25:48.960Z,40.1
2022-11-10T17:30:45.923Z,40.1
2022-11-10T17:36:30.343Z,40.1
2022-11-10T17:41:53.738Z,40.1
2022-11-10T17:47:01.506Z,40.1
2022-11-10T17:52:28.967Z,40.1
2022-11-10T18:07:44.437Z,40.1
2022-11-10T18:13:22.926Z,40.1
2022-11-10T18:19:05.610Z,40
2022-11-10T18:24:44.284Z,40
2022-11-10T18:30:07.288Z,39.9
2022-11-10T18:35:45.135Z,39.9
2022-11-10T18:41:08.241Z,39.9
2022-11-10T18:46:49.150Z,39.9
2022-11-10T18:52:33.207Z,39.8
2022-11-10T18:58:14.140Z,39.8
2022-11-10T19:09:24.279Z,39.7
2022-11-10T19:15:03.469Z,39.7
2022-11-10T19:20:29.580Z,39.7
2022-11-10T19:26:35.885Z,39.6
2022-11-10T19:32:13.956Z,39.6
2022-11-10T19:37:36.636Z,39.5
2022-11-10T19:43:15.132Z,39.5
2022-11-10T19:48:53.605Z,39.5
2022-11-10T19:54:32.535Z,39.4
2022-11-10T20:00:13.386Z,39.3
2022-11-10T20:05:54.764Z,39.3
2022-11-10T20:11:34.384Z,39.3
2022-11-10T20:17:18.574Z,39.3
2022-11-10T20:28:31.414Z,39.2
2022-11-10T20:34:10.551Z,39.4
2022-11-10T20:39:48.437Z,39.9
2022-11-10T20:45:47.012Z,40.6
2022-11-10T20:57:35.931Z,41.4
2022-11-10T21:08:40.713Z,40.5
2022-11-10T21:14:19.089Z,40.5
2022-11-10T21:19:40.902Z,40.8
2022-11-10T21:25:04.099Z,40.9
2022-11-10T21:30:30.483Z,40.9
2022-11-10T21:36:10.686Z,40.9
2022-11-10T21:41:49.767Z,40.8
2022-11-10T21:47:13.172Z,40.8
2022-11-10T21:52:50.524Z,40.8
2022-11-10T21:58:29.060Z,40.7
2022-11-10T22:04:08.243Z,40.6
2022-11-10T22:09:44.876Z,40.6
2022-11-10T22:15:07.900Z,40.5
2022-11-10T22:20:31.032Z,40.4
2022-11-10T22:26:14.444Z,40.4
2022-11-10T22:37:04.559Z,40.3
2022-11-10T22:58:05.465Z,40.1
2022-11-10T23:08:59.686Z,39.9
2022-11-10T23:14:36.656Z,39.9
2022-11-10T23:20:03.276Z,39.9
2022-11-10T23:25:46.925Z,39.9
2022-11-10T23:31:24.370Z,39.9
2022-11-10T23:37:02.982Z,39.8
2022-11-10T23:42:25.299Z,39.8
2022-11-10T23:53:31.472Z,39.6
2022-11-10T23:59:09.274Z,39.6
